createdAt,value
2023-03-19T00:02:08.971Z,10.70
2023-03-19T00:04:47.624Z,10.23
2023-03-19T00:07:19.212Z,10.90
2023-03-19T00:09:51.664Z,7.72
2023-03-19T00:14:56.020Z,6.83
2023-03-19T00:17:28.930Z,7.18
2023-03-19T00:20:00.595Z,7.60
2023-03-19T00:22:32.156Z,7.13
2023-03-19T00:25:03.923Z,6.82
2023-03-19T00:27:37.421Z,6.97
2023-03-19T00:30:09.607Z,7.55
2023-03-19T00:32:42.580Z,7.72
2023-03-19T00:35:14.733Z,8.52
2023-03-19T00:37:46.316Z,7.60
2023-03-19T00:40:17.943Z,7.43
2023-03-19T00:42:49.667Z,7.63
2023-03-19T00:45:21.788Z,7.35
2023-03-19T00:47:53.541Z,7.13
2023-03-19T00:50:25.600Z,6.45
2023-03-19T00:52:57.242Z,6.85
2023-03-19T00:55:29.068Z,8.73
2023-03-19T00:58:00.918Z,6.95
2023-03-19T01:03:08.671Z,6.20
2023-03-19T01:05:40.385Z,7.20
2023-03-19T01:08:12.029Z,6.47
2023-03-19T01:10:44.851Z,5.57
2023-03-19T01:13:17.669Z,5.95
2023-03-19T01:15:52.699Z,6.30
2023-03-19T01:18:24.249Z,5.63
2023-03-19T01:20:56.295Z,5.75
2023-03-19T01:23:28.221Z,5.68
2023-03-19T01:26:00.238Z,5.43
2023-03-19T01:28:31.812Z,5.72
2023-03-19T01:31:07.472Z,4.82
2023-03-19T01:33:39.370Z,4.82
2023-03-19T01:36:11.243Z,4.82
2023-03-19T01:38:43.498Z,5.22
2023-03-19T01:41:15.248Z,4.32
2023-03-19T01:43:46.898Z,5.18
2023-03-19T01:46:27.938Z,4.80
2023-03-19T01:49:06.356Z,4.38
2023-03-19T01:51:45.438Z,4.75
2023-03-19T01:54:23.804Z,4.40
2023-03-19T01:57:16.474Z,4.53
2023-03-19T01:59:54.751Z,5.30
2023-03-19T02:02:30.663Z,5.32
2023-03-19T02:05:15.585Z,5.85
2023-03-19T02:07:47.361Z,6.18
2023-03-19T02:10:20.988Z,5.50
2023-03-19T02:12:55.261Z,4.85
2023-03-19T02:15:27.048Z,4.28
2023-03-19T02:17:58.865Z,4.55
2023-03-19T02:20:49.640Z,3.97
2023-03-19T02:23:45.767Z,3.63
2023-03-19T02:26:24.959Z,3.97
2023-03-19T02:28:56.586Z,4.30
2023-03-19T02:31:28.254Z,3.70
2023-03-19T02:34:01.132Z,3.42
2023-03-19T02:36:39.849Z,3.17
2023-03-19T02:39:23.381Z,3.42
2023-03-19T02:41:57.223Z,4.63
2023-03-19T02:44:28.784Z,3.35
2023-03-19T02:47:00.503Z,3.38
2023-03-19T02:49:32.197Z,3.05
2023-03-19T02:52:04.785Z,2.97
2023-03-19T02:54:36.402Z,2.88
2023-03-19T02:57:08.360Z,2.90
2023-03-19T02:59:39.969Z,2.83
2023-03-19T03:02:12.832Z,2.85
2023-03-19T03:04:44.422Z,3.03
2023-03-19T03:07:16.084Z,2.65
2023-03-19T03:09:47.760Z,2.80
2023-03-19T03:12:19.261Z,2.47
2023-03-19T03:14:51.306Z,2.50
2023-03-19T03:17:24.378Z,3.13
2023-03-19T03:19:55.913Z,2.72
2023-03-19T03:22:27.656Z,2.63
2023-03-19T03:25:00.237Z,3.03
2023-03-19T03:27:32.269Z,2.97
2023-03-19T03:30:08.358Z,2.65
2023-03-19T03:32:40.241Z,2.92
2023-03-19T03:35:11.794Z,3.08
2023-03-19T03:37:43.240Z,2.50
2023-03-19T03:40:16.115Z,2.83
2023-03-19T03:42:47.743Z,2.95
2023-03-19T03:45:19.329Z,3.25
2023-03-19T03:47:51.137Z,2.60
2023-03-19T03:50:22.639Z,3.08
2023-03-19T03:52:54.337Z,2.33
2023-03-19T03:55:25.872Z,2.95
2023-03-19T03:57:57.931Z,4.05
2023-03-19T04:00:29.835Z,2.60
2023-03-19T04:03:01.698Z,2.97
2023-03-19T04:05:33.318Z,3.08
2023-03-19T04:08:07.785Z,2.07
2023-03-19T04:10:42.259Z,2.85
2023-03-19T04:13:13.848Z,3.17
2023-03-19T04:15:45.342Z,2.80
2023-03-19T04:18:16.873Z,2.60
2023-03-19T04:20:48.767Z,2.87
2023-03-19T04:23:20.252Z,2.40
2023-03-19T04:25:52.257Z,2.50
2023-03-19T04:28:24.543Z,2.55
2023-03-19T04:33:38.619Z,2.63
2023-03-19T04:38:41.610Z,2.28
2023-03-19T04:41:15.863Z,2.45
2023-03-19T04:43:47.413Z,2.42
2023-03-19T04:46:18.951Z,2.67
2023-03-19T04:48:50.722Z,2.58
2023-03-19T04:51:22.337Z,2.22
2023-03-19T04:53:54.933Z,2.60
2023-03-19T04:56:27.649Z,2.38
2023-03-19T04:58:59.285Z,2.65
2023-03-19T05:01:31.320Z,2.45
2023-03-19T05:04:03.117Z,2.35
2023-03-19T05:06:34.693Z,3.00
2023-03-19T05:09:07.653Z,2.70
2023-03-19T05:11:39.157Z,2.63
2023-03-19T05:14:10.691Z,2.37
2023-03-19T05:16:42.196Z,2.13
2023-03-19T05:19:13.714Z,2.83
2023-03-19T05:21:45.550Z,2.92
2023-03-19T05:24:17.080Z,2.63
2023-03-19T05:26:48.545Z,2.95
2023-03-19T05:29:20.008Z,2.67
2023-03-19T05:31:51.980Z,2.80
2023-03-19T05:34:23.533Z,2.92
2023-03-19T05:36:55.243Z,3.33
2023-03-19T05:39:26.780Z,3.72
2023-03-19T05:41:58.272Z,3.27
2023-03-19T05:44:29.911Z,3.43
2023-03-19T05:47:01.549Z,4.03
2023-03-19T05:49:33.067Z,4.28
2023-03-19T05:52:05.008Z,3.80
2023-03-19T05:54:36.594Z,4.10
2023-03-19T05:57:08.376Z,5.40
2023-03-19T05:59:39.924Z,4.50
2023-03-19T06:02:11.583Z,4.72
2023-03-19T06:04:43.202Z,5.10
2023-03-19T06:07:14.694Z,4.50
2023-03-19T06:09:46.646Z,5.20
2023-03-19T06:12:18.139Z,4.57
2023-03-19T06:14:50.071Z,5.50
2023-03-19T06:17:21.569Z,4.88
2023-03-19T06:19:53.281Z,4.47
2023-03-19T06:22:24.783Z,4.57
2023-03-19T06:24:56.354Z,4.38
2023-03-19T06:27:28.117Z,4.13
2023-03-19T06:29:59.701Z,4.47
2023-03-19T06:32:31.275Z,4.50
2023-03-19T06:35:03.292Z,3.90
2023-03-19T06:37:34.856Z,4.65
2023-03-19T06:51:49.727Z,4.07
2023-03-19T06:54:21.379Z,4.57
2023-03-19T06:56:53.004Z,4.20
2023-03-19T06:59:25.055Z,4.05
2023-03-19T07:01:56.613Z,4.07
2023-03-19T07:04:28.197Z,4.60
2023-03-19T07:06:59.937Z,4.13
2023-03-19T07:09:32.242Z,3.60
2023-03-19T07:14:35.465Z,3.78
2023-03-19T07:17:09.147Z,3.63
2023-03-19T07:19:41.748Z,3.45
2023-03-19T07:22:13.239Z,3.23
2023-03-19T07:24:44.791Z,3.70
2023-03-19T07:27:16.523Z,4.22
2023-03-19T07:29:48.103Z,3.63
2023-03-19T07:32:19.655Z,3.38
2023-03-19T07:34:51.512Z,3.03
2023-03-19T07:37:23.026Z,3.40
2023-03-19T07:39:54.508Z,2.97
2023-03-19T07:42:26.160Z,3.13
2023-03-19T07:44:57.718Z,3.67
2023-03-19T07:47:29.785Z,2.55
2023-03-19T07:50:01.650Z,2.38
2023-03-19T07:52:33.201Z,2.60
2023-03-19T07:55:04.960Z,2.35
2023-03-19T07:57:36.483Z,2.63
2023-03-19T08:00:08.780Z,2.58
2023-03-19T08:05:12.432Z,4.53
2023-03-19T08:07:45.078Z,2.40
2023-03-19T08:10:16.934Z,2.42
2023-03-19T08:12:48.859Z,2.10
2023-03-19T08:15:20.582Z,2.38
2023-03-19T08:17:59.557Z,2.75
2023-03-19T08:20:32.372Z,2.42
2023-03-19T08:23:04.535Z,2.40
2023-03-19T08:25:36.075Z,2.17
2023-03-19T08:28:09.812Z,2.47
2023-03-19T08:30:41.401Z,2.60
2023-03-19T08:33:13.357Z,2.90
2023-03-19T08:35:45.009Z,2.30
2023-03-19T08:38:16.759Z,2.22
2023-03-19T08:40:49.113Z,2.33
2023-03-19T08:45:52.312Z,1.90
2023-03-19T08:48:24.063Z,2.60
2023-03-19T08:50:57.365Z,2.13
2023-03-19T08:53:29.670Z,2.95
2023-03-19T08:58:34.047Z,2.90
2023-03-19T09:01:11.058Z,3.13
2023-03-19T09:03:45.094Z,2.30
2023-03-19T09:06:16.605Z,2.05
2023-03-19T09:08:48.142Z,2.40
2023-03-19T09:11:19.756Z,2.10
2023-03-19T09:13:51.317Z,3.88
2023-03-19T09:16:22.926Z,1.90
2023-03-19T09:18:58.692Z,2.33
2023-03-19T09:21:31.540Z,2.45
2023-03-19T09:24:04.167Z,1.98
2023-03-19T09:26:36.157Z,2.17
2023-03-19T09:29:08.093Z,2.50
2023-03-19T09:31:40.015Z,2.50
2023-03-19T09:34:13.817Z,2.20
2023-03-19T09:36:45.374Z,3.00
2023-03-19T09:39:16.945Z,2.40
2023-03-19T09:42:06.885Z,2.03
2023-03-19T09:44:44.120Z,4.40
2023-03-19T09:47:36.117Z,2.33
2023-03-19T09:50:20.322Z,4.72
2023-03-19T09:53:23.059Z,3.88
2023-03-19T09:55:57.343Z,3.33
2023-03-19T09:58:33.295Z,2.85
2023-03-19T10:01:04.985Z,2.47
2023-03-19T10:04:10.760Z,2.67
2023-03-19T10:06:43.686Z,2.72
2023-03-19T10:09:25.503Z,2.90
2023-03-19T10:12:05.908Z,2.55
2023-03-19T10:14:49.336Z,3.38
2023-03-19T10:17:31.840Z,2.65
2023-03-19T10:20:23.123Z,1.95
2023-03-19T10:23:11.724Z,2.90
2023-03-19T10:25:45.103Z,2.47
2023-03-19T10:31:27.018Z,2.22
2023-03-19T10:34:06.111Z,2.38
2023-03-19T10:36:38.508Z,2.08
2023-03-19T10:39:10.178Z,2.10
2023-03-19T10:41:58.076Z,2.58
2023-03-19T10:44:37.154Z,2.20
2023-03-19T10:47:16.733Z,3.65
2023-03-19T10:49:50.595Z,3.17
2023-03-19T10:52:22.069Z,2.20
2023-03-19T10:54:56.493Z,1.90
2023-03-19T10:57:31.696Z,2.25
2023-03-19T11:00:06.832Z,2.17
2023-03-19T11:02:53.743Z,2.03
2023-03-19T11:05:31.687Z,2.40
2023-03-19T11:08:07.029Z,2.25
2023-03-19T11:10:46.997Z,2.33
2023-03-19T11:13:24.598Z,2.22
2023-03-19T11:16:01.087Z,1.67
2023-03-19T11:18:39.488Z,2.65
2023-03-19T11:21:53.956Z,5.47
2023-03-19T11:24:26.502Z,2.35
2023-03-19T11:26:58.489Z,2.58
2023-03-19T11:29:30.227Z,2.47
2023-03-19T11:32:21.185Z,2.08
2023-03-19T11:35:01.397Z,2.42
2023-03-19T11:37:56.835Z,2.50
2023-03-19T11:40:45.400Z,3.25
2023-03-19T11:43:48.012Z,1.92
2023-03-19T11:46:38.260Z,1.83
2023-03-19T11:49:54.438Z,2.40
2023-03-19T11:52:33.688Z,2.17
2023-03-19T11:55:12.885Z,2.67
2023-03-19T11:58:11.983Z,2.33
2023-03-19T12:00:48.666Z,2.10
2023-03-19T12:03:42.196Z,1.88
2023-03-19T12:06:36.081Z,2.05
2023-03-19T12:09:30.136Z,2.20
2023-03-19T12:12:14.364Z,2.40
2023-03-19T12:15:02.462Z,2.50
2023-03-19T12:18:12.215Z,2.10
2023-03-19T12:21:05.756Z,2.40
2023-03-19T12:23:43.373Z,2.22
2023-03-19T12:26:24.671Z,2.28
2023-03-19T12:29:41.097Z,2.63
2023-03-19T12:32:17.352Z,2.22
2023-03-19T12:35:04.595Z,2.45
2023-03-19T12:37:42.386Z,2.15
2023-03-19T12:40:28.081Z,2.28
2023-03-19T12:43:06.317Z,2.25
2023-03-19T12:46:11.201Z,1.92
2023-03-19T12:48:50.613Z,2.28
2023-03-19T12:51:36.624Z,2.20
2023-03-19T12:54:13.792Z,2.30
2023-03-19T12:56:51.109Z,2.30
2023-03-19T12:59:41.239Z,2.65
2023-03-19T13:02:24.822Z,1.73
2023-03-19T13:05:01.529Z,2.85
2023-03-19T13:07:49.034Z,2.70
2023-03-19T13:10:23.075Z,1.90
2023-03-19T13:12:56.251Z,2.28
2023-03-19T13:15:33.742Z,2.17
2023-03-19T13:18:40.296Z,1.88
2023-03-19T13:21:23.691Z,1.90
2023-03-19T13:24:26.124Z,2.40
2023-03-19T13:27:01.216Z,2.38
2023-03-19T13:29:36.795Z,2.40
2023-03-19T13:32:24.523Z,2.00
2023-03-19T13:35:21.090Z,2.10
2023-03-19T13:38:00.571Z,2.40
2023-03-19T13:40:47.161Z,2.22
2023-03-19T13:43:30.763Z,1.88
2023-03-19T13:46:15.842Z,2.25
2023-03-19T13:48:50.333Z,2.33
2023-03-19T13:51:29.703Z,2.30
2023-03-19T13:54:13.475Z,2.25
2023-03-19T13:57:09.360Z,2.47
2023-03-19T13:59:45.670Z,2.22
2023-03-19T14:02:23.024Z,2.00
2023-03-19T14:04:59.934Z,1.95
2023-03-19T14:07:37.300Z,1.92
2023-03-19T14:10:20.422Z,1.95
2023-03-19T14:13:02.004Z,1.70
2023-03-19T14:15:49.172Z,1.80
2023-03-19T14:18:25.468Z,2.30
2023-03-19T14:20:59.355Z,1.75
2023-03-19T14:23:41.160Z,1.40
2023-03-19T14:26:24.008Z,2.08
2023-03-19T14:29:07.282Z,1.63
